Time;durP1;ratioP1;P1;durP2;ratioP2;P2;SDS_P1;SDS_P2;PMS_P1;PMS_P2;Temp;Humidity;BMP_temperature;BMP_pressure;BME280_temperature;BME280_humidity;BME280_pressure;Samples;Min_cycle;Max_cycle;Signal;HPM_P1;HPM_P2
2021/05/14 00:01:09;;;;;;;4.10;3.70;;;;;;;;;;5032498;28;20206;-82
2021/05/14 00:03:36;;;;;;;5.47;4.97;;;;;;;;;;5035535;28;20578;-82
2021/05/14 00:06:04;;;;;;;4.68;4.32;;;;;;;;;;5036241;28;20202;-82
2021/05/14 00:08:31;;;;;;;6.72;6.13;;;;;;;;;;5036274;28;20557;-82
2021/05/14 00:10:58;;;;;;;8.02;6.45;;;;;;;;;;5036580;28;20601;-82
2021/05/14 00:13:25;;;;;;;7.20;6.60;;;;;;;;;;5036502;28;20566;-82
2021/05/14 00:15:53;;;;;;;7.50;6.75;;;;;;;;;;5035620;28;20217;-82
2021/05/14 00:18:20;;;;;;;7.22;6.53;;;;;;;;;;5036275;28;20205;-82
2021/05/14 00:20:47;;;;;;;7.57;6.70;;;;;;;;;;5036464;28;20226;-81
2021/05/14 00:23:15;;;;;;;7.28;6.63;;;;;;;;;;5035822;28;20222;-82
2021/05/14 00:25:42;;;;;;;7.07;6.47;;;;;;;;;;5036575;28;20194;-83
2021/05/14 00:28:09;;;;;;;8.10;7.22;;;;;;;;;;5036051;28;20317;-82
2021/05/14 00:30:36;;;;;;;7.53;6.93;;;;;;;;;;5036290;28;20599;-82
2021/05/14 00:33:03;;;;;;;7.88;7.07;;;;;;;;;;5035504;28;20198;-81
2021/05/14 00:35:29;;;;;;;6.30;5.80;;;;;;;;;;5035628;28;20179;-82
2021/05/14 00:37:56;;;;;;;6.82;6.22;;;;;;;;;;5035935;28;20246;-82
2021/05/14 00:40:24;;;;;;;7.80;7.10;;;;;;;;;;5036067;28;20226;-82
2021/05/14 00:42:51;;;;;;;8.05;6.82;;;;;;;;;;5035865;28;20210;-81
2021/05/14 00:45:18;;;;;;;7.03;6.32;;;;;;;;;;5035712;28;20198;-81
2021/05/14 00:47:45;;;;;;;6.78;6.28;;;;;;;;;;5035499;28;20620;-81
2021/05/14 00:50:12;;;;;;;6.20;5.70;;;;;;;;;;5035151;28;20225;-82
2021/05/14 00:52:39;;;;;;;7.75;6.95;;;;;;;;;;5035774;28;20183;-82
2021/05/14 00:55:08;;;;;;;6.40;5.90;;;;;;;;;;5035584;28;20186;-81
2021/05/14 00:57:37;;;;;;;9.38;7.25;;;;;;;;;;5034995;28;20742;-82
2021/05/14 01:00:05;;;;;;;6.45;5.95;;;;;;;;;;5035647;28;20222;-82
2021/05/14 01:02:32;;;;;;;7.38;6.72;;;;;;;;;;5035613;28;20304;-82
2021/05/14 01:04:59;;;;;;;8.77;7.72;;;;;;;;;;5035630;28;20210;-81
2021/05/14 01:07:26;;;;;;;7.78;7.07;;;;;;;;;;5028293;28;20597;-82
2021/05/14 01:09:53;;;;;;;7.95;7.15;;;;;;;;;;5015288;28;20214;-81
2021/05/14 01:12:20;;;;;;;7.60;6.88;;;;;;;;;;5015351;28;20564;-82
2021/05/14 01:14:47;;;;;;;8.40;7.53;;;;;;;;;;5014153;28;20554;-81
2021/05/14 01:17:14;;;;;;;8.70;7.90;;;;;;;;;;5015226;28;20737;-82
2021/05/14 01:19:41;;;;;;;9.65;8.77;;;;;;;;;;5014670;28;20234;-82
2021/05/14 01:22:09;;;;;;;8.68;7.72;;;;;;;;;;5014974;28;20300;-82
2021/05/14 01:24:36;;;;;;;8.35;7.65;;;;;;;;;;5014963;28;20180;-82
2021/05/14 01:27:04;;;;;;;8.25;7.45;;;;;;;;;;5014744;28;20214;-82
2021/05/14 01:29:31;;;;;;;8.00;7.30;;;;;;;;;;5015030;28;20730;-82
2021/05/14 01:31:59;;;;;;;9.65;8.75;;;;;;;;;;5015201;28;20201;-82
2021/05/14 01:34:26;;;;;;;9.05;8.25;;;;;;;;;;5014748;28;20188;-81
2021/05/14 01:36:53;;;;;;;8.52;7.70;;;;;;;;;;5016410;28;20630;-82
2021/05/14 01:39:23;;;;;;;8.10;7.40;;;;;;;;;;5034151;28;20222;-82
2021/05/14 01:41:50;;;;;;;8.27;7.57;;;;;;;;;;5034804;28;20178;-82
2021/05/14 01:44:17;;;;;;;7.90;7.30;;;;;;;;;;5034509;28;20210;-82
2021/05/14 01:46:44;;;;;;;8.43;7.75;;;;;;;;;;5034598;28;20237;-82
2021/05/14 01:49:11;;;;;;;7.15;6.55;;;;;;;;;;5034402;28;20226;-82
2021/05/14 01:51:38;;;;;;;10.93;7.72;;;;;;;;;;5034244;28;20205;-82
2021/05/14 01:54:05;;;;;;;9.00;8.20;;;;;;;;;;5034239;28;20566;-82
2021/05/14 01:56:33;;;;;;;8.88;8.13;;;;;;;;;;5034278;28;20187;-82
2021/05/14 01:59:00;;;;;;;7.85;7.15;;;;;;;;;;5014558;28;20207;-82
2021/05/14 02:01:27;;;;;;;7.50;6.78;;;;;;;;;;5014547;28;20195;-82
2021/05/14 02:03:54;;;;;;;8.10;7.38;;;;;;;;;;5014342;28;20211;-81
2021/05/14 02:06:21;;;;;;;7.15;6.55;;;;;;;;;;5014594;28;20202;-82
2021/05/14 02:08:49;;;;;;;8.20;7.45;;;;;;;;;;5014145;28;20203;-82
2021/05/14 02:11:16;;;;;;;7.28;6.65;;;;;;;;;;5014268;28;20215;-81
2021/05/14 02:13:43;;;;;;;7.68;6.97;;;;;;;;;;5014335;28;20206;-82
2021/05/14 02:16:11;;;;;;;6.97;6.35;;;;;;;;;;5013913;28;20238;-82
2021/05/14 02:18:39;;;;;;;7.18;6.57;;;;;;;;;;5030215;28;20222;-82
2021/05/14 02:21:07;;;;;;;7.13;6.53;;;;;;;;;;5033859;28;20711;-82
2021/05/14 02:23:34;;;;;;;6.93;6.00;;;;;;;;;;5033923;28;20202;-82
2021/05/14 02:26:01;;;;;;;6.97;6.38;;;;;;;;;;5033465;28;20554;-82
2021/05/14 02:28:28;;;;;;;8.07;7.28;;;;;;;;;;5033788;28;20206;-82
2021/05/14 02:30:56;;;;;;;6.88;6.28;;;;;;;;;;5033759;28;20222;-82
2021/05/14 02:33:23;;;;;;;5.97;5.55;;;;;;;;;;5033731;28;20205;-82
2021/05/14 02:35:50;;;;;;;7.10;6.25;;;;;;;;;;5033788;28;20676;-82
2021/05/14 02:38:17;;;;;;;6.53;5.90;;;;;;;;;;5032531;28;20576;-82
2021/05/14 02:40:44;;;;;;;6.88;6.25;;;;;;;;;;5033340;28;20728;-82
2021/05/14 02:43:11;;;;;;;6.68;6.18;;;;;;;;;;5033493;28;20210;-82
2021/05/14 02:45:39;;;;;;;6.90;6.20;;;;;;;;;;5033604;28;20187;-82
2021/05/14 02:48:08;;;;;;;5.97;5.35;;;;;;;;;;5033406;28;20187;-82
2021/05/14 02:50:35;;;;;;;9.35;6.82;;;;;;;;;;5032917;28;20218;-82
2021/05/14 02:53:03;;;;;;;5.68;5.18;;;;;;;;;;5033482;28;20187;-82
2021/05/14 02:55:30;;;;;;;6.05;5.45;;;;;;;;;;5033148;28;20201;-82
2021/05/14 02:57:57;;;;;;;6.22;5.65;;;;;;;;;;5032345;28;20183;-82
2021/05/14 03:00:25;;;;;;;6.22;5.63;;;;;;;;;;5032016;28;20276;-82
2021/05/14 03:02:52;;;;;;;6.55;6.05;;;;;;;;;;5032905;28;20248;-81
2021/05/14 03:05:20;;;;;;;6.15;5.53;;;;;;;;;;5033220;28;20195;-82
2021/05/14 03:07:47;;;;;;;6.50;5.97;;;;;;;;;;5033151;28;20197;-82
2021/05/14 03:10:14;;;;;;;10.30;6.95;;;;;;;;;;5033179;28;20233;-82
2021/05/14 03:12:41;;;;;;;6.20;5.60;;;;;;;;;;5033205;28;20187;-81
2021/05/14 03:15:10;;;;;;;8.63;7.90;;;;;;;;;;5032857;28;20205;-82
2021/05/14 03:17:37;;;;;;;7.60;6.95;;;;;;;;;;5033172;28;20202;-82
2021/05/14 03:20:06;;;;;;;7.18;6.50;;;;;;;;;;5033102;28;20222;-82
2021/05/14 03:22:34;;;;;;;7.68;6.82;;;;;;;;;;5033119;28;20191;-81
2021/05/14 03:25:00;;;;;;;6.35;5.85;;;;;;;;;;5032936;28;20214;-82
2021/05/14 03:27:27;;;;;;;7.13;6.45;;;;;;;;;;5032573;28;20680;-82
2021/05/14 03:29:55;;;;;;;6.55;6.05;;;;;;;;;;5032743;28;20218;-82
2021/05/14 03:32:22;;;;;;;7.20;6.60;;;;;;;;;;5032944;28;20194;-82
2021/05/14 03:34:49;;;;;;;6.63;5.82;;;;;;;;;;5033123;28;20559;-82
2021/05/14 03:37:16;;;;;;;6.65;6.05;;;;;;;;;;5032374;28;20189;-82
2021/05/14 03:39:45;;;;;;;6.50;5.97;;;;;;;;;;5032575;28;20230;-82
2021/05/14 03:42:16;;;;;;;7.00;6.40;;;;;;;;;;5032858;28;20567;-81
2021/05/14 03:44:43;;;;;;;6.22;5.63;;;;;;;;;;5032614;28;20226;-82
2021/05/14 03:47:11;;;;;;;6.22;5.72;;;;;;;;;;5032658;28;20197;-82
2021/05/14 03:49:38;;;;;;;9.50;5.70;;;;;;;;;;5032956;28;20297;-82
2021/05/14 03:52:07;;;;;;;6.07;5.28;;;;;;;;;;5032431;28;20233;-82
2021/05/14 03:54:34;;;;;;;6.35;5.72;;;;;;;;;;5033248;28;20558;-81
2021/05/14 03:57:02;;;;;;;7.72;5.50;;;;;;;;;;5032335;28;20190;-81
2021/05/14 03:59:29;;;;;;;5.63;5.13;;;;;;;;;;5032284;28;20731;-84
2021/05/14 04:01:56;;;;;;;5.70;5.20;;;;;;;;;;5032615;28;20248;-81
2021/05/14 04:04:24;;;;;;;7.10;6.43;;;;;;;;;;5032589;28;20206;-81
2021/05/14 04:06:51;;;;;;;8.77;6.88;;;;;;;;;;5032391;28;20645;-81
2021/05/14 04:09:24;;;;;;;6.90;6.30;;;;;;;;;;5032370;28;20218;-82
2021/05/14 04:14:30;;;;;;;5.97;5.53;;;;;;;;;;5032653;28;20170;-82
2021/05/14 04:16:58;;;;;;;8.05;7.35;;;;;;;;;;5032033;28;20712;-81
2021/05/14 04:19:25;;;;;;;7.18;6.57;;;;;;;;;;5032540;28;20276;-82
2021/05/14 04:21:54;;;;;;;6.82;6.13;;;;;;;;;;5032580;28;20276;-82
2021/05/14 04:24:22;;;;;;;7.57;6.88;;;;;;;;;;5032168;28;20222;-82
2021/05/14 04:26:50;;;;;;;7.30;6.70;;;;;;;;;;5032191;28;20663;-81
2021/05/14 04:29:17;;;;;;;7.63;6.65;;;;;;;;;;5032241;28;20280;-81
2021/05/14 04:31:46;;;;;;;6.95;6.45;;;;;;;;;;5032308;28;20185;-82
2021/05/14 04:34:15;;;;;;;7.00;6.40;;;;;;;;;;5032157;28;20187;-81
2021/05/14 04:36:42;;;;;;;6.22;5.72;;;;;;;;;;5032499;28;20206;-82
2021/05/14 04:39:11;;;;;;;6.68;6.18;;;;;;;;;;5032636;28;20226;-82
2021/05/14 04:41:38;;;;;;;7.40;6.35;;;;;;;;;;5032364;28;20191;-82
2021/05/14 04:44:07;;;;;;;9.50;8.50;;;;;;;;;;5032107;28;20218;-82
2021/05/14 04:46:34;;;;;;;8.10;6.50;;;;;;;;;;5032342;28;20645;-82
2021/05/14 04:49:02;;;;;;;8.52;7.72;;;;;;;;;;5037187;28;20206;-82
2021/05/14 04:51:29;;;;;;;6.43;5.82;;;;;;;;;;5035631;28;20199;-82
2021/05/14 04:53:56;;;;;;;7.05;6.45;;;;;;;;;;5035757;28;20259;-82
2021/05/14 04:56:23;;;;;;;6.82;6.32;;;;;;;;;;5035626;28;20198;-84
2021/05/14 04:58:50;;;;;;;6.55;5.95;;;;;;;;;;5035748;28;20186;-81
2021/05/14 05:01:18;;;;;;;7.88;7.13;;;;;;;;;;5035558;28;20637;-83
2021/05/14 05:03:46;;;;;;;6.35;5.78;;;;;;;;;;5035767;28;20191;-83
2021/05/14 05:06:14;;;;;;;6.97;6.28;;;;;;;;;;5035468;28;20559;-81
2021/05/14 05:08:41;;;;;;;6.13;5.70;;;;;;;;;;5035324;28;20633;-81
2021/05/14 05:11:07;;;;;;;7.10;6.47;;;;;;;;;;5035278;28;20214;-82
2021/05/14 05:13:34;;;;;;;7.35;6.75;;;;;;;;;;5035458;28;20187;-82
2021/05/14 05:16:01;;;;;;;7.75;7.00;;;;;;;;;;5035700;28;20227;-82
2021/05/14 05:18:28;;;;;;;9.20;8.05;;;;;;;;;;5036155;28;20226;-81
2021/05/14 05:20:55;;;;;;;7.78;7.07;;;;;;;;;;5035881;28;20226;-81
2021/05/14 05:23:23;;;;;;;7.60;6.90;;;;;;;;;;5035031;28;20198;-81
2021/05/14 05:25:50;;;;;;;7.22;6.32;;;;;;;;;;5036082;28;20210;-82
2021/05/14 05:28:21;;;;;;;7.65;6.90;;;;;;;;;;5036172;28;20213;-81
2021/05/14 05:30:48;;;;;;;7.45;6.75;;;;;;;;;;5035643;28;20241;-82
2021/05/14 05:33:15;;;;;;;7.13;6.53;;;;;;;;;;5035799;28;20182;-82
2021/05/14 05:35:42;;;;;;;7.72;7.03;;;;;;;;;;5035809;28;20198;-82
2021/05/14 05:38:17;;;;;;;8.02;7.32;;;;;;;;;;5035149;28;20191;-81
2021/05/14 05:40:45;;;;;;;7.47;6.15;;;;;;;;;;5035179;28;20229;-82
2021/05/14 05:43:12;;;;;;;6.78;6.18;;;;;;;;;;5034043;28;20245;-83
2021/05/14 05:45:39;;;;;;;6.50;5.90;;;;;;;;;;5034884;28;20222;-83
2021/05/14 05:48:08;;;;;;;6.68;6.07;;;;;;;;;;5034915;28;20202;-81
2021/05/14 05:50:35;;;;;;;6.88;6.28;;;;;;;;;;5034871;28;20785;-82
2021/05/14 05:53:02;;;;;;;6.38;5.78;;;;;;;;;;5034655;28;20206;-82
2021/05/14 05:55:29;;;;;;;5.95;5.32;;;;;;;;;;5035222;28;20641;-83
2021/05/14 05:58:03;;;;;;;5.93;5.38;;;;;;;;;;5034913;28;20186;-81
2021/05/14 06:00:30;;;;;;;5.75;5.35;;;;;;;;;;5034302;28;20223;-82
2021/05/14 06:02:57;;;;;;;5.70;5.25;;;;;;;;;;5034607;28;20175;-83
2021/05/14 06:05:24;;;;;;;6.28;5.68;;;;;;;;;;5034728;28;20688;-82
2021/05/14 06:07:51;;;;;;;6.53;5.93;;;;;;;;;;5034779;28;20198;-82
2021/05/14 06:10:18;;;;;;;6.05;5.35;;;;;;;;;;5034373;28;20230;-81
2021/05/14 06:12:45;;;;;;;6.78;5.93;;;;;;;;;;5035015;28;20191;-82
2021/05/14 06:15:13;;;;;;;4.88;4.47;;;;;;;;;;5034339;28;20592;-83
2021/05/14 06:17:41;;;;;;;7.40;5.60;;;;;;;;;;5034321;28;20205;-82
2021/05/14 06:20:11;;;;;;;5.65;5.18;;;;;;;;;;5034069;28;20688;-81
2021/05/14 06:22:38;;;;;;;6.20;5.55;;;;;;;;;;5034419;28;20226;-83
2021/05/14 06:25:07;;;;;;;6.35;5.75;;;;;;;;;;5034779;28;20275;-82
2021/05/14 06:27:34;;;;;;;6.65;6.00;;;;;;;;;;5034720;28;20191;-83
2021/05/14 06:30:01;;;;;;;5.75;5.25;;;;;;;;;;5034782;28;20218;-81
2021/05/14 06:32:28;;;;;;;5.30;4.90;;;;;;;;;;5034704;28;20629;-83
2021/05/14 06:34:56;;;;;;;6.18;5.68;;;;;;;;;;5034749;28;20221;-83
2021/05/14 06:37:23;;;;;;;5.25;4.75;;;;;;;;;;5034408;28;20190;-81
2021/05/14 06:39:50;;;;;;;5.07;4.68;;;;;;;;;;5034190;28;20238;-82
2021/05/14 06:42:17;;;;;;;5.80;5.30;;;;;;;;;;5033921;28;20660;-82
2021/05/14 06:44:44;;;;;;;5.07;4.63;;;;;;;;;;5034189;28;20202;-82
2021/05/14 06:47:11;;;;;;;5.70;4.97;;;;;;;;;;5025403;28;20197;-81
2021/05/14 06:49:38;;;;;;;6.68;6.03;;;;;;;;;;5033566;28;20770;-81
2021/05/14 06:52:06;;;;;;;6.05;5.45;;;;;;;;;;5033347;28;20179;-81
2021/05/14 06:54:33;;;;;;;5.57;5.07;;;;;;;;;;5033816;28;20182;-81
2021/05/14 06:57:02;;;;;;;7.15;6.45;;;;;;;;;;5033876;28;20205;-82
2021/05/14 06:59:29;;;;;;;7.63;6.82;;;;;;;;;;5034061;28;20714;-83
2021/05/14 07:01:55;;;;;;;6.60;6.00;;;;;;;;;;5033925;28;20183;-83
2021/05/14 07:04:23;;;;;;;6.22;5.63;;;;;;;;;;5033724;28;20189;-82
2021/05/14 07:06:53;;;;;;;6.53;5.95;;;;;;;;;;5033243;28;20199;-82
2021/05/14 07:09:20;;;;;;;7.78;6.65;;;;;;;;;;5033488;28;20226;-82
2021/05/14 07:11:47;;;;;;;6.97;6.38;;;;;;;;;;5032306;28;20205;-83
2021/05/14 07:14:14;;;;;;;6.78;6.03;;;;;;;;;;5033620;28;20201;-83
2021/05/14 07:16:42;;;;;;;8.65;7.43;;;;;;;;;;5033381;28;20704;-83
2021/05/14 07:19:11;;;;;;;9.88;8.82;;;;;;;;;;5033809;28;20272;-82
2021/05/14 07:21:38;;;;;;;8.40;7.60;;;;;;;;;;5034319;28;20193;-83
2021/05/14 07:24:08;;;;;;;7.20;6.53;;;;;;;;;;5033491;28;20667;-83
2021/05/14 07:26:35;;;;;;;8.02;7.22;;;;;;;;;;5033188;28;20213;-82
2021/05/14 07:29:04;;;;;;;7.25;6.53;;;;;;;;;;5032911;28;20182;-83
2021/05/14 07:31:33;;;;;;;6.90;6.30;;;;;;;;;;5033155;28;20183;-82
2021/05/14 07:34:00;;;;;;;7.75;6.95;;;;;;;;;;5032810;28;20237;-82
2021/05/14 07:36:27;;;;;;;8.70;7.45;;;;;;;;;;5033418;28;20653;-83
2021/05/14 07:38:54;;;;;;;6.43;5.80;;;;;;;;;;5032779;28;20692;-82
2021/05/14 07:41:22;;;;;;;8.15;7.35;;;;;;;;;;5033156;28;20209;-84
2021/05/14 07:43:49;;;;;;;6.53;5.93;;;;;;;;;;5033179;28;20178;-82
2021/05/14 07:46:16;;;;;;;8.73;7.93;;;;;;;;;;5033467;28;20207;-82
2021/05/14 07:48:43;;;;;;;9.02;8.13;;;;;;;;;;5033905;28;20187;-83
2021/05/14 07:51:10;;;;;;;7.90;7.15;;;;;;;;;;5033692;28;20711;-83
2021/05/14 07:53:37;;;;;;;7.30;6.60;;;;;;;;;;5033988;28;20186;-83
2021/05/14 07:56:04;;;;;;;8.27;7.47;;;;;;;;;;5032969;28;20202;-83
2021/05/14 07:58:32;;;;;;;7.65;6.95;;;;;;;;;;5033376;28;20186;-82
2021/05/14 08:01:00;;;;;;;7.78;6.90;;;;;;;;;;5032786;28;20214;-83
2021/05/14 08:03:27;;;;;;;7.75;6.95;;;;;;;;;;5032093;28;20199;-84
2021/05/14 08:05:53;;;;;;;7.75;6.95;;;;;;;;;;5032986;28;20260;-83
2021/05/14 08:08:23;;;;;;;8.75;6.60;;;;;;;;;;5032962;28;20206;-83
2021/05/14 08:10:55;;;;;;;8.00;7.18;;;;;;;;;;5032855;28;20767;-83
2021/05/14 08:13:22;;;;;;;8.00;7.20;;;;;;;;;;5032640;28;20218;-83
2021/05/14 08:15:50;;;;;;;8.38;7.55;;;;;;;;;;5033036;28;20230;-83
2021/05/14 08:18:18;;;;;;;7.80;7.10;;;;;;;;;;5033302;28;20202;-83
2021/05/14 08:20:45;;;;;;;6.95;6.25;;;;;;;;;;5033671;28;20229;-83
2021/05/14 08:23:12;;;;;;;6.35;5.75;;;;;;;;;;5033894;28;20206;-83
2021/05/14 08:25:39;;;;;;;8.02;7.22;;;;;;;;;;5037160;28;20229;-83
2021/05/14 08:28:06;;;;;;;8.27;7.07;;;;;;;;;;5037129;28;20225;-83
2021/05/14 08:30:33;;;;;;;7.30;6.60;;;;;;;;;;5036935;28;20222;-83
2021/05/14 08:33:00;;;;;;;8.55;6.10;;;;;;;;;;5036461;28;20637;-83
2021/05/14 08:35:27;;;;;;;6.55;5.90;;;;;;;;;;5036711;28;20221;-83
2021/05/14 08:37:54;;;;;;;7.80;6.65;;;;;;;;;;5036897;28;20198;-83
2021/05/14 08:40:21;;;;;;;7.70;6.20;;;;;;;;;;5036283;28;20222;-83
2021/05/14 08:42:48;;;;;;;8.10;6.50;;;;;;;;;;5036451;28;20206;-83
2021/05/14 08:45:15;;;;;;;7.63;6.70;;;;;;;;;;5035921;28;20199;-83
2021/05/14 08:47:43;;;;;;;7.43;5.82;;;;;;;;;;5036566;28;20206;-83
2021/05/14 08:50:13;;;;;;;6.38;5.78;;;;;;;;;;5036288;28;20226;-83
2021/05/14 08:52:42;;;;;;;7.97;6.03;;;;;;;;;;5037305;28;20237;-83
2021/05/14 08:55:12;;;;;;;6.55;5.88;;;;;;;;;;5036159;28;20256;-83
2021/05/14 08:57:40;;;;;;;8.10;5.90;;;;;;;;;;5036394;28;20575;-82
2021/05/14 09:00:09;;;;;;;7.55;6.50;;;;;;;;;;5035609;28;20276;-83
2021/05/14 09:02:37;;;;;;;6.57;5.63;;;;;;;;;;5035519;28;20207;-83
2021/05/14 09:05:25;;;;;;;9.48;6.95;;;;;;;;;;5036098;28;20201;-84
2021/05/14 09:07:53;;;;;;;7.07;6.30;;;;;;;;;;5035780;28;20189;-83
2021/05/14 09:10:20;;;;;;;6.93;5.78;;;;;;;;;;5035464;28;20218;-83
2021/05/14 09:12:47;;;;;;;8.02;7.20;;;;;;;;;;5035055;28;20699;-83
2021/05/14 09:15:23;;;;;;;7.38;6.65;;;;;;;;;;5035925;28;20213;-83
2021/05/14 09:18:10;;;;;;;8.07;6.90;;;;;;;;;;5035803;28;20213;-83
2021/05/14 09:20:39;;;;;;;10.20;7.07;;;;;;;;;;5035667;28;20230;-83
2021/05/14 09:23:32;;;;;;;10.07;8.30;;;;;;;;;;5036004;28;20695;-83
2021/05/14 09:26:01;;;;;;;7.38;6.68;;;;;;;;;;5035161;28;20591;-83
2021/05/14 09:28:30;;;;;;;8.55;7.55;;;;;;;;;;5035325;28;20186;-83
2021/05/14 09:31:19;;;;;;;8.73;7.90;;;;;;;;;;5035634;28;20226;-83
2021/05/14 09:33:47;;;;;;;8.98;8.07;;;;;;;;;;5029983;28;20244;-83
2021/05/14 09:36:18;;;;;;;9.65;8.32;;;;;;;;;;5034810;28;20286;-83
2021/05/14 09:38:48;;;;;;;7.88;7.07;;;;;;;;;;5035688;28;20253;-83
2021/05/14 09:41:31;;;;;;;9.05;8.23;;;;;;;;;;5034590;28;20579;-83
2021/05/14 09:44:00;;;;;;;8.82;7.97;;;;;;;;;;5035185;28;20293;-83
2021/05/14 09:46:33;;;;;;;8.00;7.15;;;;;;;;;;5034556;28;20218;-83
2021/05/14 09:49:02;;;;;;;7.65;6.97;;;;;;;;;;5035100;28;20244;-83
2021/05/14 09:51:31;;;;;;;8.40;7.70;;;;;;;;;;5034510;28;20190;-83
2021/05/14 09:54:23;;;;;;;9.55;8.65;;;;;;;;;;5036454;28;20617;-84
2021/05/14 09:57:31;;;;;;;9.05;8.15;;;;;;;;;;5035126;28;20198;-84
2021/05/14 10:00:00;;;;;;;9.05;8.30;;;;;;;;;;5035093;28;20233;-83
2021/05/14 10:02:30;;;;;;;8.13;7.40;;;;;;;;;;5035639;28;20202;-84
2021/05/14 10:04:59;;;;;;;8.18;7.47;;;;;;;;;;5035608;28;20266;-84
2021/05/14 10:07:29;;;;;;;9.48;8.68;;;;;;;;;;5034131;28;20228;-83
2021/05/14 10:09:59;;;;;;;8.07;7.38;;;;;;;;;;5034440;28;20710;-83
2021/05/14 10:12:26;;;;;;;7.65;6.95;;;;;;;;;;5035030;28;20202;-84
2021/05/14 10:14:56;;;;;;;8.10;7.35;;;;;;;;;;5035129;28;20225;-84
2021/05/14 10:17:23;;;;;;;8.82;8.00;;;;;;;;;;5034503;28;20316;-84
2021/05/14 10:19:51;;;;;;;6.82;6.22;;;;;;;;;;5032579;28;20233;-83
2021/05/14 10:22:19;;;;;;;6.97;6.38;;;;;;;;;;5033298;28;20206;-83
2021/05/14 10:24:51;;;;;;;8.75;5.93;;;;;;;;;;5032768;28;20199;-84
2021/05/14 10:27:21;;;;;;;7.25;6.38;;;;;;;;;;5034790;28;20218;-83
2021/05/14 10:29:50;;;;;;;6.95;6.35;;;;;;;;;;5034561;28;20229;-84
2021/05/14 10:32:38;;;;;;;6.43;5.57;;;;;;;;;;5035535;28;20198;-83
2021/05/14 10:35:07;;;;;;;5.47;5.05;;;;;;;;;;5034483;28;20206;-84
2021/05/14 10:37:47;;;;;;;6.60;6.00;;;;;;;;;;5035286;28;20194;-83
2021/05/14 10:40:43;;;;;;;5.60;5.10;;;;;;;;;;5034217;28;20222;-83
2021/05/14 10:43:12;;;;;;;6.68;6.07;;;;;;;;;;5034765;28;20289;-84
2021/05/14 10:45:41;;;;;;;5.50;5.00;;;;;;;;;;5034984;28;20206;-84
2021/05/14 10:48:19;;;;;;;4.95;4.55;;;;;;;;;;5034733;28;20208;-84
2021/05/14 10:50:50;;;;;;;5.43;4.93;;;;;;;;;;5036375;28;20218;-83
2021/05/14 10:53:34;;;;;;;6.82;5.25;;;;;;;;;;5036695;28;20198;-84
2021/05/14 10:56:29;;;;;;;6.10;5.50;;;;;;;;;;5036239;28;20198;-84
2021/05/14 10:59:14;;;;;;;5.75;5.20;;;;;;;;;;5036282;28;20217;-84
2021/05/14 11:01:42;;;;;;;4.93;4.53;;;;;;;;;;5037016;28;20206;-84
2021/05/14 11:04:42;;;;;;;5.95;5.45;;;;;;;;;;5036704;28;20256;-84
2021/05/14 11:07:37;;;;;;;5.32;4.85;;;;;;;;;;5036290;28;20222;-84
2021/05/14 11:10:36;;;;;;;5.85;5.35;;;;;;;;;;5035904;28;20218;-84
2021/05/14 11:13:48;;;;;;;6.53;5.93;;;;;;;;;;5036890;28;20213;-84
2021/05/14 11:16:38;;;;;;;5.75;5.18;;;;;;;;;;5035585;28;20234;-84
2021/05/14 11:19:15;;;;;;;5.22;4.72;;;;;;;;;;5036361;28;20249;-84
2021/05/14 11:22:08;;;;;;;8.18;7.38;;;;;;;;;;5036029;28;20229;-84
2021/05/14 11:24:45;;;;;;;7.32;6.63;;;;;;;;;;5035738;28;20571;-83
2021/05/14 11:27:15;;;;;;;11.20;7.65;;;;;;;;;;5036402;28;20221;-85
2021/05/14 11:29:49;;;;;;;5.40;4.90;;;;;;;;;;5035607;28;20280;-84
2021/05/14 11:32:38;;;;;;;5.75;5.35;;;;;;;;;;5035288;28;20260;-84
2021/05/14 11:35:13;;;;;;;4.88;4.47;;;;;;;;;;5028401;28;20245;-83
2021/05/14 11:37:50;;;;;;;5.20;4.80;;;;;;;;;;5036370;28;20608;-84
2021/05/14 11:40:19;;;;;;;6.20;5.40;;;;;;;;;;5036868;28;20221;-84
2021/05/14 11:42:48;;;;;;;5.07;4.43;;;;;;;;;;5036910;28;20303;-84
2021/05/14 11:45:21;;;;;;;5.38;4.88;;;;;;;;;;5036181;28;20589;-83
2021/05/14 11:47:52;;;;;;;5.05;4.55;;;;;;;;;;5036772;28;20599;-84
2021/05/14 11:50:28;;;;;;;4.55;4.15;;;;;;;;;;5036419;28;20450;-84
2021/05/14 11:52:55;;;;;;;6.10;4.75;;;;;;;;;;5036479;28;20194;-84
2021/05/14 11:55:23;;;;;;;4.18;3.85;;;;;;;;;;5036300;28;20226;-84
2021/05/14 11:57:52;;;;;;;4.40;4.00;;;;;;;;;;5037612;28;20221;-84
2021/05/14 12:00:27;;;;;;;4.07;3.65;;;;;;;;;;5041008;28;20225;-84
2021/05/14 12:02:56;;;;;;;4.78;4.20;;;;;;;;;;5041031;28;20201;-84
2021/05/14 12:05:24;;;;;;;5.15;4.00;;;;;;;;;;5040006;28;20199;-83
2021/05/14 12:07:51;;;;;;;4.55;4.15;;;;;;;;;;5040508;28;20221;-84
2021/05/14 12:10:19;;;;;;;4.30;3.90;;;;;;;;;;5040565;28;20225;-85
2021/05/14 12:12:47;;;;;;;4.13;3.63;;;;;;;;;;5041111;28;20201;-84
2021/05/14 12:15:23;;;;;;;6.35;3.65;;;;;;;;;;5040677;28;20209;-85
2021/05/14 12:17:59;;;;;;;4.30;3.60;;;;;;;;;;5040767;28;20202;-85
2021/05/14 12:20:33;;;;;;;5.03;4.63;;;;;;;;;;5040734;28;20636;-85
2021/05/14 12:23:03;;;;;;;4.35;3.95;;;;;;;;;;5040621;28;20229;-84
2021/05/14 12:25:40;;;;;;;4.35;3.85;;;;;;;;;;5040063;28;20199;-85
2021/05/14 12:28:45;;;;;;;4.70;3.60;;;;;;;;;;5040295;28;20226;-85
2021/05/14 12:31:15;;;;;;;3.75;3.30;;;;;;;;;;5035924;28;20202;-83
2021/05/14 12:33:51;;;;;;;4.03;3.22;;;;;;;;;;5039995;28;20202;-84
2021/05/14 12:36:25;;;;;;;4.43;4.03;;;;;;;;;;5039278;28;20209;-83
2021/05/14 12:38:53;;;;;;;3.17;2.97;;;;;;;;;;5039734;28;20297;-83
2021/05/14 12:41:27;;;;;;;5.70;3.47;;;;;;;;;;5039815;28;20198;-83
2021/05/14 12:44:17;;;;;;;4.35;3.95;;;;;;;;;;5040213;28;20199;-84
2021/05/14 12:47:14;;;;;;;3.55;3.25;;;;;;;;;;5040640;28;20237;-84
2021/05/14 12:49:47;;;;;;;2.92;2.72;;;;;;;;;;4958706;28;20224;-83
2021/05/14 12:52:18;;;;;;;3.50;3.17;;;;;;;;;;5023634;28;20730;-84
2021/05/14 12:54:55;;;;;;;5.50;4.97;;;;;;;;;;5039647;28;20203;-85
2021/05/14 12:57:31;;;;;;;3.65;3.35;;;;;;;;;;5039457;28;20563;-84
2021/05/14 12:59:59;;;;;;;3.67;3.38;;;;;;;;;;5039288;28;20232;-84
2021/05/14 13:02:27;;;;;;;4.32;3.92;;;;;;;;;;5039074;28;20202;-84
2021/05/14 13:05:05;;;;;;;4.65;4.25;;;;;;;;;;5039203;28;20194;-84
2021/05/14 13:07:32;;;;;;;4.63;4.22;;;;;;;;;;5039364;28;20210;-84
2021/05/14 13:09:59;;;;;;;7.05;4.60;;;;;;;;;;5038863;28;20249;-84
2021/05/14 13:12:26;;;;;;;4.68;4.28;;;;;;;;;;5038758;28;20202;-84
2021/05/14 13:14:54;;;;;;;4.97;3.90;;;;;;;;;;5038903;28;20217;-84
2021/05/14 13:17:21;;;;;;;4.80;4.35;;;;;;;;;;5038539;28;20259;-84
2021/05/14 13:19:48;;;;;;;4.90;4.32;;;;;;;;;;5038910;28;20226;-85
2021/05/14 13:22:16;;;;;;;4.07;3.67;;;;;;;;;;5038730;28;20617;-83
2021/05/14 13:24:43;;;;;;;4.68;4.28;;;;;;;;;;5038134;28;20248;-84
2021/05/14 13:27:10;;;;;;;4.72;4.05;;;;;;;;;;5038331;28;20281;-84
2021/05/14 13:29:37;;;;;;;5.25;4.80;;;;;;;;;;5038730;28;20225;-84
2021/05/14 13:32:05;;;;;;;4.40;3.83;;;;;;;;;;5039174;28;20203;-84
2021/05/14 13:34:32;;;;;;;4.93;4.05;;;;;;;;;;5038796;28;20618;-83
2021/05/14 13:36:59;;;;;;;4.50;4.10;;;;;;;;;;5039448;28;20187;-84
2021/05/14 13:39:27;;;;;;;4.80;4.30;;;;;;;;;;5038390;28;20222;-84
2021/05/14 13:41:53;;;;;;;5.20;4.63;;;;;;;;;;5038544;28;20198;-84
2021/05/14 13:44:20;;;;;;;4.05;3.78;;;;;;;;;;5038479;28;20678;-84
2021/05/14 13:46:47;;;;;;;5.25;4.45;;;;;;;;;;5039072;28;20210;-85
2021/05/14 13:49:14;;;;;;;3.55;3.25;;;;;;;;;;5038730;28;20233;-85
2021/05/14 13:51:41;;;;;;;4.25;3.80;;;;;;;;;;5039194;28;20202;-84
2021/05/14 13:54:08;;;;;;;3.95;3.65;;;;;;;;;;5038472;28;20209;-85
2021/05/14 13:56:36;;;;;;;3.85;3.55;;;;;;;;;;5038684;28;20361;-85
2021/05/14 13:59:03;;;;;;;4.38;3.10;;;;;;;;;;5038404;28;20202;-85
2021/05/14 14:01:30;;;;;;;4.07;3.67;;;;;;;;;;5038621;28;20206;-85
2021/05/14 14:04:00;;;;;;;3.35;3.05;;;;;;;;;;5038387;28;20241;-85
2021/05/14 14:06:27;;;;;;;2.63;2.42;;;;;;;;;;5038615;28;20214;-84
2021/05/14 14:08:54;;;;;;;2.85;2.65;;;;;;;;;;5038697;28;20603;-84
2021/05/14 14:11:20;;;;;;;2.45;2.25;;;;;;;;;;5038297;28;20199;-84
2021/05/14 14:13:48;;;;;;;3.78;3.05;;;;;;;;;;5038566;28;20199;-84
2021/05/14 14:16:15;;;;;;;4.47;3.65;;;;;;;;;;5037953;28;20230;-85
2021/05/14 14:18:42;;;;;;;2.75;2.55;;;;;;;;;;5037583;28;20194;-84
2021/05/14 14:21:08;;;;;;;2.95;2.53;;;;;;;;;;5037638;28;20218;-86
2021/05/14 14:23:35;;;;;;;3.38;3.08;;;;;;;;;;5037951;28;20198;-85
2021/05/14 14:26:02;;;;;;;3.53;3.22;;;;;;;;;;5037430;28;20202;-85
2021/05/14 14:28:29;;;;;;;3.47;2.47;;;;;;;;;;5038529;28;20230;-85
2021/05/14 14:30:57;;;;;;;3.08;2.63;;;;;;;;;;5038046;28;20699;-85
2021/05/14 14:33:24;;;;;;;3.10;2.83;;;;;;;;;;5037469;28;20209;-85
2021/05/14 14:35:50;;;;;;;3.50;3.20;;;;;;;;;;5037809;28;20213;-85
2021/05/14 14:38:17;;;;;;;7.50;3.25;;;;;;;;;;5037453;28;20211;-85
2021/05/14 14:40:45;;;;;;;2.55;2.35;;;;;;;;;;5037647;28;20222;-86
2021/05/14 14:43:12;;;;;;;2.40;1.75;;;;;;;;;;5037827;28;20683;-85
2021/05/14 14:45:39;;;;;;;2.05;1.95;;;;;;;;;;5038021;28;20210;-85
2021/05/14 14:48:08;;;;;;;2.35;1.80;;;;;;;;;;5037290;28;20619;-85
2021/05/14 14:50:35;;;;;;;3.20;2.90;;;;;;;;;;5037480;28;20229;-85
2021/05/14 14:53:03;;;;;;;2.90;2.70;;;;;;;;;;5037454;28;20208;-85
2021/05/14 14:55:30;;;;;;;3.30;3.10;;;;;;;;;;5037392;28;20202;-85
2021/05/14 14:57:59;;;;;;;3.13;2.83;;;;;;;;;;5037874;28;20198;-86
2021/05/14 15:00:26;;;;;;;3.42;2.67;;;;;;;;;;5038320;28;20234;-85